createdAt,value
2022-12-20T00:01:32.872Z,80.38
2022-12-20T00:04:05.949Z,80.41
2022-12-20T00:06:35.627Z,80.34
2022-12-20T00:09:05.056Z,80.77
2022-12-20T00:11:31.943Z,80.67
2022-12-20T00:13:59.458Z,80.66
2022-12-20T00:16:28.476Z,80.71
2022-12-20T00:18:57.999Z,80.73
2022-12-20T00:21:26.130Z,81.07
2022-12-20T00:23:53.560Z,80.87
2022-12-20T00:26:26.001Z,81.12
2022-12-20T00:28:53.573Z,80.60
2022-12-20T00:31:22.610Z,81.16
2022-12-20T00:33:51.377Z,80.86
2022-12-20T00:36:19.662Z,80.90
2022-12-20T00:38:48.716Z,80.94
2022-12-20T00:41:20.876Z,80.93
2022-12-20T00:43:48.944Z,81.12
2022-12-20T00:46:17.030Z,81.32
2022-12-20T00:48:44.013Z,80.98
2022-12-20T00:51:17.026Z,81.32
2022-12-20T00:53:44.797Z,81.15
2022-12-20T00:56:12.291Z,81.36
2022-12-20T00:58:41.451Z,81.10
2022-12-20T01:01:18.094Z,81.36
2022-12-20T01:03:45.279Z,81.31
2022-12-20T01:06:13.946Z,81.41
2022-12-20T01:08:41.198Z,81.47
2022-12-20T01:11:26.057Z,81.22
2022-12-20T01:13:56.306Z,81.10
2022-12-20T01:16:44.006Z,81.42
2022-12-20T01:19:13.745Z,81.37
2022-12-20T01:21:44.828Z,81.25
2022-12-20T01:24:17.104Z,81.34
2022-12-20T01:26:45.163Z,81.56
2022-12-20T01:29:14.213Z,81.50
2022-12-20T01:31:43.214Z,81.51
2022-12-20T01:34:10.787Z,81.78
2022-12-20T01:36:38.501Z,81.44
2022-12-20T01:39:12.008Z,81.87
2022-12-20T01:41:39.644Z,81.79
2022-12-20T01:44:26.441Z,81.94
2022-12-20T01:46:54.549Z,81.64
2022-12-20T01:49:26.589Z,81.47
2022-12-20T01:52:00.780Z,82.09
2022-12-20T01:54:33.894Z,81.82
2022-12-20T01:57:17.062Z,81.62
2022-12-20T01:59:46.230Z,81.78
2022-12-20T02:02:13.901Z,81.95
2022-12-20T02:04:41.559Z,81.89
2022-12-20T02:07:13.857Z,82.01
2022-12-20T02:09:40.933Z,81.87
2022-12-20T02:12:12.976Z,82.24
2022-12-20T02:15:08.089Z,82.23
2022-12-20T02:17:40.255Z,82.08
2022-12-20T02:20:25.776Z,81.97
2022-12-20T02:23:30.158Z,81.96
2022-12-20T02:26:00.177Z,82.16
2022-12-20T02:28:52.065Z,82.30
2022-12-20T02:31:27.175Z,82.19
2022-12-20T02:33:56.219Z,82.11
2022-12-20T02:36:23.350Z,82.31
2022-12-20T02:38:51.992Z,82.20
2022-12-20T02:41:29.781Z,82.59
2022-12-20T02:44:20.343Z,82.13
2022-12-20T02:46:48.648Z,82.41
2022-12-20T02:49:18.674Z,82.30
2022-12-20T02:51:47.795Z,82.49
2022-12-20T02:54:15.540Z,82.30
2022-12-20T02:56:47.768Z,82.24
2022-12-20T02:59:20.103Z,82.21
2022-12-20T03:01:53.528Z,82.61
2022-12-20T03:04:25.076Z,82.47
2022-12-20T03:07:12.404Z,82.45
2022-12-20T03:09:44.107Z,82.51
2022-12-20T03:12:16.820Z,82.54
2022-12-20T03:14:43.977Z,82.72
2022-12-20T03:17:13.568Z,82.46
2022-12-20T03:19:40.804Z,82.43
2022-12-20T03:22:07.963Z,82.77
2022-12-20T03:24:35.223Z,82.71
2022-12-20T03:27:07.612Z,82.92
2022-12-20T03:29:34.863Z,82.81
2022-12-20T03:32:01.963Z,82.88
2022-12-20T03:34:30.070Z,82.75
2022-12-20T03:36:57.269Z,82.92
2022-12-20T03:39:24.275Z,82.81
2022-12-20T03:41:53.633Z,82.87
2022-12-20T03:44:20.678Z,83.09
2022-12-20T03:46:49.165Z,83.13
2022-12-20T03:49:16.567Z,82.72
2022-12-20T03:51:48.062Z,82.99
2022-12-20T03:54:15.053Z,82.95
2022-12-20T03:57:04.013Z,83.03
2022-12-20T03:59:31.608Z,82.97
2022-12-20T04:02:00.039Z,82.84
2022-12-20T04:04:29.405Z,83.00
2022-12-20T04:06:56.607Z,83.18
2022-12-20T04:09:23.741Z,83.06
2022-12-20T04:11:56.605Z,83.09
2022-12-20T04:14:24.528Z,83.04
2022-12-20T04:16:51.785Z,82.73
2022-12-20T04:19:21.028Z,83.01
2022-12-20T04:21:48.548Z,83.19
2022-12-20T04:24:17.745Z,82.98
2022-12-20T04:27:04.897Z,83.25
2022-12-20T04:29:32.566Z,83.19
2022-12-20T04:31:59.888Z,83.07
2022-12-20T04:34:27.171Z,83.01
2022-12-20T04:36:54.105Z,83.17
2022-12-20T04:39:31.835Z,83.04
2022-12-20T04:42:17.351Z,83.24
2022-12-20T04:44:44.739Z,83.46
2022-12-20T04:47:13.306Z,83.13
2022-12-20T04:49:40.412Z,83.31
2022-12-20T04:52:26.215Z,83.13
2022-12-20T04:54:53.576Z,83.36
2022-12-20T04:57:25.887Z,83.34
2022-12-20T04:59:52.980Z,83.52
2022-12-20T05:02:20.125Z,83.16
2022-12-20T05:04:53.676Z,83.22
2022-12-20T05:07:21.343Z,83.42
2022-12-20T05:09:52.347Z,83.36
2022-12-20T05:12:19.504Z,83.33
2022-12-20T05:14:46.564Z,83.58
2022-12-20T05:17:16.535Z,83.25
2022-12-20T05:19:44.159Z,83.24
2022-12-20T05:22:31.846Z,83.21
2022-12-20T05:25:26.273Z,83.47
2022-12-20T05:27:55.296Z,83.41
2022-12-20T05:30:25.742Z,83.41
2022-12-20T05:32:54.249Z,83.42
2022-12-20T05:35:21.572Z,83.63
2022-12-20T05:37:54.203Z,83.56
2022-12-20T05:40:22.485Z,83.44
2022-12-20T05:42:49.893Z,83.51
2022-12-20T05:45:17.305Z,83.57
2022-12-20T05:47:50.797Z,83.35
2022-12-20T05:50:19.265Z,83.48
2022-12-20T05:53:10.940Z,83.33
2022-12-20T05:55:49.470Z,83.44
2022-12-20T05:58:17.331Z,83.53
2022-12-20T06:00:53.967Z,83.29
2022-12-20T06:03:22.244Z,83.71
2022-12-20T06:05:50.310Z,83.55
2022-12-20T06:08:24.657Z,83.64
2022-12-20T06:10:53.092Z,83.66
2022-12-20T06:13:21.115Z,83.93
2022-12-20T06:15:50.426Z,83.67
2022-12-20T06:18:18.957Z,83.47
2022-12-20T06:20:51.552Z,83.61
2022-12-20T06:23:22.111Z,83.51
2022-12-20T06:26:09.722Z,83.49
2022-12-20T06:28:46.201Z,83.62
2022-12-20T06:31:14.381Z,83.64
2022-12-20T06:33:45.036Z,83.54
2022-12-20T06:36:14.990Z,83.68
2022-12-20T06:38:43.277Z,83.44
2022-12-20T06:41:10.468Z,83.56
2022-12-20T06:43:37.753Z,83.62
2022-12-20T06:46:04.923Z,83.64
2022-12-20T06:48:32.042Z,83.66
2022-12-20T06:50:59.229Z,83.71
2022-12-20T06:53:27.792Z,83.66
2022-12-20T06:55:55.270Z,83.70
2022-12-20T06:58:23.267Z,83.98
2022-12-20T07:00:50.483Z,83.63
2022-12-20T07:03:17.811Z,83.67
2022-12-20T07:05:45.065Z,84.03
2022-12-20T07:08:12.113Z,83.60
2022-12-20T07:10:39.189Z,83.51
2022-12-20T07:13:06.160Z,83.87
2022-12-20T07:15:33.123Z,83.74
2022-12-20T07:18:00.190Z,83.77
2022-12-20T07:20:27.312Z,83.78
2022-12-20T07:22:54.333Z,83.64
2022-12-20T07:25:21.618Z,83.71
2022-12-20T07:27:52.375Z,83.82
2022-12-20T07:30:20.498Z,83.89
2022-12-20T07:32:48.012Z,84.13
2022-12-20T07:35:15.823Z,84.02
2022-12-20T07:37:42.911Z,84.02
2022-12-20T07:40:11.503Z,83.97
2022-12-20T07:42:46.189Z,83.86
2022-12-20T07:45:15.714Z,83.82
2022-12-20T07:47:43.987Z,83.95
2022-12-20T07:50:11.924Z,83.90
2022-12-20T07:52:41.031Z,83.91
2022-12-20T07:55:09.182Z,84.10
2022-12-20T07:57:42.703Z,83.82
2022-12-20T08:00:11.586Z,83.98
2022-12-20T08:02:47.689Z,83.98
2022-12-20T08:05:15.861Z,84.11
2022-12-20T08:07:43.202Z,84.10
2022-12-20T08:10:12.061Z,84.12
2022-12-20T08:12:39.470Z,84.16
2022-12-20T08:15:07.220Z,84.05
2022-12-20T08:17:34.894Z,84.03
2022-12-20T08:20:02.064Z,84.12
2022-12-20T08:22:29.035Z,83.81
2022-12-20T08:24:56.035Z,84.01
2022-12-20T08:27:23.118Z,84.22
2022-12-20T08:29:50.616Z,83.81
2022-12-20T08:32:17.682Z,83.87
2022-12-20T08:34:45.624Z,84.03
2022-12-20T08:37:15.143Z,83.98
2022-12-20T08:39:42.360Z,84.09
2022-12-20T08:42:09.948Z,84.08
2022-12-20T08:44:36.948Z,84.02
2022-12-20T08:47:03.967Z,83.97
2022-12-20T08:49:31.044Z,83.82
2022-12-20T08:51:58.080Z,83.76
2022-12-20T08:54:25.084Z,83.94
2022-12-20T08:56:52.194Z,83.94
2022-12-20T08:59:19.441Z,83.83
2022-12-20T09:01:46.699Z,83.66
2022-12-20T09:04:14.875Z,83.75
2022-12-20T09:06:41.774Z,83.81
2022-12-20T09:09:08.902Z,83.82
2022-12-20T09:11:35.856Z,83.70
2022-12-20T09:14:03.174Z,83.86
2022-12-20T09:16:32.442Z,83.71
2022-12-20T09:19:05.506Z,83.73
2022-12-20T09:21:34.452Z,83.58
2022-12-20T09:24:01.406Z,83.83
2022-12-20T09:26:28.441Z,83.55
2022-12-20T09:28:55.368Z,83.98
2022-12-20T09:31:24.683Z,83.70
2022-12-20T09:33:55.994Z,83.94
2022-12-20T09:36:24.357Z,83.70
2022-12-20T09:38:52.051Z,83.66
2022-12-20T09:41:28.088Z,83.60
2022-12-20T09:43:56.219Z,83.65
2022-12-20T09:46:23.521Z,83.71
2022-12-20T09:48:50.613Z,83.69
2022-12-20T09:51:39.518Z,83.60
2022-12-20T09:54:45.145Z,83.59
2022-12-20T09:57:30.572Z,83.48
2022-12-20T10:00:00.239Z,83.64
2022-12-20T10:05:23.299Z,83.62
2022-12-20T10:07:58.332Z,83.29
2022-12-20T10:10:50.020Z,83.27
2022-12-20T10:13:27.339Z,83.49
2022-12-20T10:16:09.758Z,83.45
2022-12-20T10:18:41.515Z,83.28
2022-12-20T10:21:45.723Z,83.32
2022-12-20T10:24:18.500Z,83.45
2022-12-20T10:26:48.930Z,83.31
2022-12-20T10:29:15.998Z,83.32
2022-12-20T10:31:43.145Z,83.44
2022-12-20T10:34:10.256Z,83.28
2022-12-20T10:36:37.982Z,83.34
2022-12-20T10:39:07.976Z,83.47
2022-12-20T10:41:40.646Z,83.48
2022-12-20T10:44:15.045Z,83.12
2022-12-20T10:46:44.969Z,82.99
2022-12-20T10:49:32.043Z,82.92
2022-12-20T10:52:13.362Z,83.13
2022-12-20T10:54:45.291Z,83.21
2022-12-20T10:57:19.695Z,83.17
2022-12-20T10:59:54.264Z,83.28
2022-12-20T11:02:41.311Z,82.93
2022-12-20T11:05:12.586Z,82.98
2022-12-20T11:10:45.155Z,82.94
2022-12-20T11:13:26.204Z,82.98
2022-12-20T11:15:57.731Z,82.85
2022-12-20T11:18:29.006Z,82.88
2022-12-20T11:21:33.496Z,83.00
2022-12-20T11:24:37.773Z,82.99
2022-12-20T11:27:15.906Z,82.98
2022-12-20T11:29:50.023Z,83.17
2022-12-20T11:32:22.813Z,82.81
2022-12-20T11:35:15.422Z,82.97
2022-12-20T11:38:20.042Z,82.77
2022-12-20T11:41:00.652Z,82.95
2022-12-20T11:44:23.775Z,82.73
2022-12-20T11:47:16.536Z,82.67
2022-12-20T11:50:06.375Z,83.06
2022-12-20T11:52:37.410Z,82.74
2022-12-20T11:55:08.285Z,82.73
2022-12-20T11:58:17.097Z,83.06
2022-12-20T12:00:36.932Z,82.65
2022-12-20T12:03:21.693Z,82.48
2022-12-20T12:05:55.153Z,82.88
2022-12-20T12:08:28.182Z,82.77
2022-12-20T12:11:25.464Z,82.59
2022-12-20T12:13:56.806Z,82.94
2022-12-20T12:16:26.751Z,82.95
2022-12-20T12:18:54.742Z,82.96
2022-12-20T12:21:27.278Z,83.09
2022-12-20T12:24:00.212Z,82.80
2022-12-20T12:26:33.005Z,82.93
2022-12-20T12:29:02.282Z,82.65
2022-12-20T12:31:38.070Z,82.83
2022-12-20T12:34:40.722Z,82.72
2022-12-20T12:37:33.891Z,82.57
2022-12-20T12:40:42.897Z,82.79
2022-12-20T12:43:35.847Z,82.98
2022-12-20T12:46:28.946Z,82.74
2022-12-20T12:49:00.649Z,82.95
2022-12-20T12:51:31.645Z,82.44
2022-12-20T12:54:25.718Z,82.59
2022-12-20T12:56:55.684Z,82.98
2022-12-20T12:59:48.910Z,83.03
2022-12-20T13:02:16.715Z,82.98
2022-12-20T13:05:10.918Z,82.51
2022-12-20T13:07:40.185Z,82.65
2022-12-20T13:10:09.966Z,82.23
2022-12-20T13:12:37.019Z,82.80
2022-12-20T13:15:04.035Z,82.21
2022-12-20T13:17:31.012Z,82.73
2022-12-20T13:19:58.775Z,82.70
2022-12-20T13:22:27.046Z,82.63
2022-12-20T13:25:04.573Z,82.39
2022-12-20T13:27:41.452Z,82.37
2022-12-20T13:30:11.750Z,82.38
2022-12-20T13:32:47.928Z,82.08
2022-12-20T13:35:41.394Z,82.63
2022-12-20T13:38:11.811Z,82.40
2022-12-20T13:40:47.221Z,82.44
2022-12-20T13:43:20.336Z,82.02
2022-12-20T13:45:49.468Z,82.41
2022-12-20T13:48:19.166Z,82.01
2022-12-20T13:50:52.393Z,82.30
2022-12-20T13:53:21.046Z,82.44
2022-12-20T13:55:49.716Z,82.25
2022-12-20T13:58:26.493Z,81.89
2022-12-20T14:00:55.038Z,82.65
2022-12-20T14:03:28.599Z,82.42
2022-12-20T14:05:59.672Z,82.23
2022-12-20T14:08:30.929Z,82.39
2022-12-20T14:11:22.900Z,82.64
2022-12-20T14:13:54.652Z,82.44
2022-12-20T14:16:23.921Z,82.21
2022-12-20T14:18:58.102Z,81.88
2022-12-20T14:21:25.802Z,82.08
2022-12-20T14:23:55.906Z,82.30
2022-12-20T14:26:26.463Z,81.99
2022-12-20T14:28:55.568Z,82.14
2022-12-20T14:31:39.452Z,82.00
2022-12-20T14:34:11.797Z,81.98
2022-12-20T14:36:42.589Z,82.14
2022-12-20T14:39:29.613Z,81.92
2022-12-20T14:41:58.886Z,81.97
2022-12-20T14:44:27.408Z,82.51
2022-12-20T14:46:56.607Z,81.92
2022-12-20T14:49:31.989Z,82.15
2022-12-20T14:52:07.025Z,82.25
2022-12-20T14:55:06.318Z,82.04
2022-12-20T14:57:50.480Z,82.23
2022-12-20T15:00:31.535Z,82.07
2022-12-20T15:03:23.171Z,82.53
2022-12-20T15:05:52.379Z,81.73
2022-12-20T15:08:29.612Z,82.35
2022-12-20T15:10:58.343Z,82.40
2022-12-20T15:13:36.480Z,82.16
2022-12-20T15:16:24.411Z,82.00
2022-12-20T15:18:59.502Z,82.13
2022-12-20T15:21:42.979Z,81.92
2022-12-20T15:24:18.727Z,81.98
2022-12-20T15:26:45.866Z,81.95
2022-12-20T15:29:20.383Z,82.27
2022-12-20T15:31:48.003Z,82.00
2022-12-20T15:34:31.244Z,82.22
2022-12-20T15:37:00.229Z,82.37
2022-12-20T15:39:27.534Z,81.83
2022-12-20T15:41:55.017Z,82.22
2022-12-20T15:44:27.078Z,82.26
2022-12-20T15:46:54.134Z,81.96
2022-12-20T15:49:23.920Z,82.08
2022-12-20T15:51:52.733Z,82.42
2022-12-20T15:54:33.726Z,81.88
2022-12-20T15:57:03.341Z,81.99
2022-12-20T16:02:26.187Z,82.35
2022-12-20T16:04:54.354Z,82.43
2022-12-20T16:07:21.865Z,82.42
2022-12-20T16:09:48.951Z,82.46
2022-12-20T16:12:28.675Z,82.07
2022-12-20T16:14:55.713Z,81.88
2022-12-20T16:17:22.738Z,82.12
2022-12-20T16:19:49.959Z,82.41
2022-12-20T16:22:19.071Z,82.10
2022-12-20T16:24:46.659Z,82.24
2022-12-20T16:27:14.369Z,82.20
2022-12-20T16:29:41.771Z,82.47
2022-12-20T16:32:15.983Z,82.20
2022-12-20T16:34:43.831Z,82.78
2022-12-20T16:37:12.120Z,82.49
2022-12-20T16:39:39.300Z,82.10
2022-12-20T16:42:22.909Z,82.75
2022-12-20T16:44:53.733Z,82.60
2022-12-20T16:47:21.749Z,82.81
2022-12-20T16:49:52.843Z,82.40
2022-12-20T16:52:22.166Z,82.79
2022-12-20T16:54:49.818Z,82.75
2022-12-20T16:57:16.975Z,82.49
2022-12-20T16:59:43.965Z,82.55
2022-12-20T17:02:24.021Z,82.63
2022-12-20T17:04:51.254Z,82.39
2022-12-20T17:07:18.125Z,82.28
2022-12-20T17:12:29.343Z,82.41
2022-12-20T17:14:56.814Z,82.88
2022-12-20T17:17:23.795Z,82.18
2022-12-20T17:19:50.843Z,82.60
2022-12-20T17:25:03.508Z,82.70
2022-12-20T17:27:30.486Z,82.78
2022-12-20T17:29:57.426Z,82.42
2022-12-20T17:32:25.590Z,82.64
2022-12-20T17:34:53.232Z,82.48
2022-12-20T17:37:21.199Z,82.83
2022-12-20T17:39:48.731Z,82.56
2022-12-20T17:42:16.855Z,82.47
2022-12-20T17:44:44.008Z,82.40
2022-12-20T17:47:11.998Z,82.76
2022-12-20T17:49:39.258Z,82.66
2022-12-20T17:52:06.362Z,82.65
2022-12-20T17:54:39.608Z,82.52
2022-12-20T17:57:13.438Z,82.91
2022-12-20T17:59:40.359Z,82.93
2022-12-20T18:02:26.057Z,82.57
2022-12-20T18:04:53.395Z,82.51
2022-12-20T18:07:20.626Z,82.36
2022-12-20T18:09:48.341Z,82.16
2022-12-20T18:12:16.072Z,82.68
2022-12-20T18:14:43.001Z,82.05
2022-12-20T18:17:10.048Z,82.73
2022-12-20T18:19:37.215Z,82.34
2022-12-20T18:22:05.006Z,82.59
2022-12-20T18:24:32.172Z,82.44
2022-12-20T18:26:59.084Z,82.05
2022-12-20T18:29:26.005Z,82.45
2022-12-20T18:31:53.193Z,82.47
2022-12-20T18:34:20.672Z,82.32
2022-12-20T18:36:47.612Z,82.46
2022-12-20T18:39:14.874Z,82.48
2022-12-20T18:41:43.155Z,82.03
2022-12-20T18:44:11.195Z,82.18
2022-12-20T18:46:38.289Z,82.48
2022-12-20T18:49:05.365Z,82.42
2022-12-20T18:51:36.919Z,82.43
2022-12-20T18:54:04.419Z,82.46
2022-12-20T18:56:33.529Z,82.39
2022-12-20T18:59:08.069Z,82.22
2022-12-20T19:01:38.236Z,81.98
2022-12-20T19:04:07.592Z,81.79
2022-12-20T19:06:35.581Z,82.49
2022-12-20T19:09:04.697Z,82.03
2022-12-20T19:11:32.192Z,82.02
2022-12-20T19:13:59.207Z,82.16
2022-12-20T19:16:29.517Z,82.08
2022-12-20T19:18:56.629Z,81.72
2022-12-20T19:21:26.069Z,82.19
2022-12-20T19:23:58.469Z,81.92
2022-12-20T19:26:30.345Z,82.00
2022-12-20T19:28:57.485Z,82.20
2022-12-20T19:31:27.545Z,82.11
2022-12-20T19:34:01.347Z,81.77
2022-12-20T19:36:36.042Z,81.94
2022-12-20T19:39:07.773Z,81.88
2022-12-20T19:41:35.832Z,81.53
2022-12-20T19:44:04.415Z,82.19
2022-12-20T19:46:32.573Z,82.00
2022-12-20T19:49:01.213Z,81.93
2022-12-20T19:51:29.166Z,81.99
2022-12-20T19:53:57.896Z,81.88
2022-12-20T19:56:27.963Z,81.49
2022-12-20T19:58:55.860Z,81.92
2022-12-20T20:01:26.282Z,81.58
2022-12-20T20:03:54.958Z,81.66
2022-12-20T20:06:22.607Z,81.58
2022-12-20T20:08:50.041Z,81.79
2022-12-20T20:11:19.083Z,81.55
2022-12-20T20:13:47.034Z,81.53
2022-12-20T20:16:21.549Z,81.70
2022-12-20T20:18:50.679Z,81.86
2022-12-20T20:21:23.823Z,81.64
2022-12-20T20:23:52.971Z,81.45
2022-12-20T20:26:34.413Z,81.46
2022-12-20T20:29:02.831Z,81.53
2022-12-20T20:31:30.815Z,81.25
2022-12-20T20:33:59.493Z,81.55
2022-12-20T20:36:30.743Z,81.35
2022-12-20T20:38:59.276Z,81.64
2022-12-20T20:41:27.216Z,81.66
2022-12-20T20:43:56.585Z,81.76
2022-12-20T20:46:25.564Z,81.66
2022-12-20T20:48:53.961Z,81.20
2022-12-20T20:51:24.018Z,81.46
2022-12-20T20:53:55.877Z,81.47
2022-12-20T20:56:25.160Z,81.42
2022-12-20T20:58:55.246Z,81.58
2022-12-20T21:01:26.304Z,81.41
2022-12-20T21:03:54.606Z,81.43
2022-12-20T21:06:42.048Z,81.52
2022-12-20T21:09:13.514Z,81.38
2022-12-20T21:11:41.448Z,81.52
2022-12-20T21:14:08.516Z,81.16
2022-12-20T21:16:37.941Z,81.28
2022-12-20T21:19:05.827Z,81.53
2022-12-20T21:21:32.819Z,81.21
2022-12-20T21:23:59.693Z,80.99
2022-12-20T21:26:26.897Z,81.59
2022-12-20T21:29:01.084Z,81.06
2022-12-20T21:31:28.266Z,81.13
2022-12-20T21:33:56.824Z,81.20
2022-12-20T21:36:24.556Z,81.08
2022-12-20T21:38:56.552Z,81.12
2022-12-20T21:41:25.784Z,81.05
2022-12-20T21:43:56.663Z,80.93
2022-12-20T21:46:23.982Z,81.32
2022-12-20T21:48:51.124Z,80.77
2022-12-20T21:51:20.698Z,80.92
2022-12-20T21:53:55.921Z,80.98
2022-12-20T21:56:24.218Z,81.06
2022-12-20T21:58:51.857Z,80.65
2022-12-20T22:01:24.300Z,80.50
2022-12-20T22:03:52.831Z,80.82
2022-12-20T22:06:20.206Z,80.74
2022-12-20T22:08:47.673Z,80.54
2022-12-20T22:11:17.386Z,80.76
2022-12-20T22:13:45.277Z,80.59
2022-12-20T22:16:25.637Z,80.67
2022-12-20T22:18:54.855Z,80.73
2022-12-20T22:21:24.262Z,80.62
2022-12-20T22:23:51.377Z,80.79
2022-12-20T22:26:21.443Z,80.41
2022-12-20T22:28:51.058Z,80.44
2022-12-20T22:31:19.205Z,80.68
2022-12-20T22:33:46.310Z,80.73
2022-12-20T22:36:15.289Z,80.76
2022-12-20T22:38:43.522Z,80.32
2022-12-20T22:41:11.638Z,80.20
2022-12-20T22:43:39.214Z,80.31
2022-12-20T22:48:50.585Z,80.44
2022-12-20T22:51:20.117Z,80.50
2022-12-20T22:53:47.826Z,80.21
2022-12-20T22:56:16.313Z,80.18
2022-12-20T22:58:43.275Z,80.42
2022-12-20T23:01:12.210Z,80.21
2022-12-20T23:03:40.759Z,80.08
2022-12-20T23:06:10.144Z,80.04
2022-12-20T23:08:37.838Z,79.95
2022-12-20T23:11:36.273Z,80.05
2022-12-20T23:14:22.699Z,80.18
2022-12-20T23:16:50.236Z,80.23
2022-12-20T23:19:17.126Z,80.12
2022-12-20T23:22:02.967Z,80.00
2022-12-20T23:24:30.017Z,80.19
2022-12-20T23:26:57.323Z,79.92
2022-12-20T23:29:24.264Z,79.86
2022-12-20T23:31:51.312Z,79.97
2022-12-20T23:34:18.358Z,79.85
2022-12-20T23:36:45.319Z,79.74
2022-12-20T23:39:12.253Z,79.81
2022-12-20T23:41:39.271Z,79.94
2022-12-20T23:44:07.429Z,79.95
2022-12-20T23:46:34.900Z,79.69
2022-12-20T23:49:01.840Z,79.75
2022-12-20T23:51:28.783Z,79.63
2022-12-20T23:53:55.673Z,79.51
2022-12-20T23:56:23.424Z,79.59
2022-12-20T23:58:52.860Z,79.67
